sensor_id;sensor_type;location;lat;lon;timestamp;P1;durP1;ratioP1;P2;durP2;ratioP2
26906;SDS011;14472;56.880;16.658;2023-06-05T00:00:56;4.30;;;2.80;;
26906;SDS011;14472;56.880;16.658;2023-06-05T00:03:22;3.97;;;2.77;;
26906;SDS011;14472;56.880;16.658;2023-06-05T00:05:49;4.30;;;2.70;;
26906;SDS011;14472;56.880;16.658;2023-06-05T00:08:15;4.80;;;2.60;;
26906;SDS011;14472;56.880;16.658;2023-06-05T00:10:42;4.60;;;2.70;;
26906;SDS011;14472;56.880;16.658;2023-06-05T00:13:07;3.57;;;2.30;;
26906;SDS011;14472;56.880;16.658;2023-06-05T00:15:33;3.60;;;2.80;;
26906;SDS011;14472;56.880;16.658;2023-06-05T00:18:01;3.23;;;2.33;;
26906;SDS011;14472;56.880;16.658;2023-06-05T00:20:28;5.50;;;2.70;;
26906;SDS011;14472;56.880;16.658;2023-06-05T00:22:54;3.57;;;2.50;;
26906;SDS011;14472;56.880;16.658;2023-06-05T00:25:20;5.07;;;2.40;;
26906;SDS011;14472;56.880;16.658;2023-06-05T00:27:46;4.47;;;2.33;;
26906;SDS011;14472;56.880;16.658;2023-06-05T00:30:12;4.13;;;2.70;;
26906;SDS011;14472;56.880;16.658;2023-06-05T00:32:38;5.47;;;2.50;;
26906;SDS011;14472;56.880;16.658;2023-06-05T00:35:07;3.20;;;2.20;;
26906;SDS011;14472;56.880;16.658;2023-06-05T00:37:33;5.37;;;2.40;;
26906;SDS011;14472;56.880;16.658;2023-06-05T00:40:00;3.63;;;2.50;;
26906;SDS011;14472;56.880;16.658;2023-06-05T00:42:25;3.37;;;2.27;;
26906;SDS011;14472;56.880;16.658;2023-06-05T00:44:52;3.40;;;2.17;;
26906;SDS011;14472;56.880;16.658;2023-06-05T00:47:18;2.73;;;2.13;;
26906;SDS011;14472;56.880;16.658;2023-06-05T00:49:44;2.97;;;2.30;;
26906;SDS011;14472;56.880;16.658;2023-06-05T00:52:10;2.57;;;2.17;;
26906;SDS011;14472;56.880;16.658;2023-06-05T00:54:36;4.90;;;2.30;;
26906;SDS011;14472;56.880;16.658;2023-06-05T00:57:02;4.37;;;2.40;;
26906;SDS011;14472;56.880;16.658;2023-06-05T00:59:29;4.43;;;2.40;;
26906;SDS011;14472;56.880;16.658;2023-06-05T01:01:59;4.00;;;2.17;;
26906;SDS011;14472;56.880;16.658;2023-06-05T01:04:27;3.73;;;2.50;;
26906;SDS011;14472;56.880;16.658;2023-06-05T01:06:54;3.13;;;2.03;;
26906;SDS011;14472;56.880;16.658;2023-06-05T01:09:22;3.93;;;2.10;;
26906;SDS011;14472;56.880;16.658;2023-06-05T01:11:51;3.73;;;2.47;;
26906;SDS011;14472;56.880;16.658;2023-06-05T01:14:21;3.20;;;2.27;;
26906;SDS011;14472;56.880;16.658;2023-06-05T01:16:49;4.57;;;2.30;;
26906;SDS011;14472;56.880;16.658;2023-06-05T01:19:19;2.57;;;2.10;;
26906;SDS011;14472;56.880;16.658;2023-06-05T01:21:53;15.43;;;2.70;;
26906;SDS011;14472;56.880;16.658;2023-06-05T01:24:21;4.63;;;2.20;;
26906;SDS011;14472;56.880;16.658;2023-06-05T01:29:43;4.00;;;2.23;;
26906;SDS011;14472;56.880;16.658;2023-06-05T01:32:19;3.17;;;2.30;;
26906;SDS011;14472;56.880;16.658;2023-06-05T01:35:02;3.40;;;2.40;;
26906;SDS011;14472;56.880;16.658;2023-06-05T01:37:31;3.50;;;2.30;;
26906;SDS011;14472;56.880;16.658;2023-06-05T01:40:15;4.80;;;2.37;;
26906;SDS011;14472;56.880;16.658;2023-06-05T01:42:43;2.80;;;2.10;;
26906;SDS011;14472;56.880;16.658;2023-06-05T01:45:10;2.83;;;2.10;;
26906;SDS011;14472;56.880;16.658;2023-06-05T01:47:37;4.70;;;2.37;;
26906;SDS011;14472;56.880;16.658;2023-06-05T01:50:04;4.27;;;2.80;;
26906;SDS011;14472;56.880;16.658;2023-06-05T01:52:31;4.57;;;2.30;;
26906;SDS011;14472;56.880;16.658;2023-06-05T01:54:57;3.93;;;2.37;;
26906;SDS011;14472;56.880;16.658;2023-06-05T01:57:27;3.77;;;2.57;;
26906;SDS011;14472;56.880;16.658;2023-06-05T01:59:53;3.83;;;2.30;;
26906;SDS011;14472;56.880;16.658;2023-06-05T02:02:19;4.57;;;2.57;;
26906;SDS011;14472;56.880;16.658;2023-06-05T02:04:46;3.50;;;2.50;;
26906;SDS011;14472;56.880;16.658;2023-06-05T02:07:13;4.13;;;2.60;;
26906;SDS011;14472;56.880;16.658;2023-06-05T02:09:40;4.73;;;2.57;;
26906;SDS011;14472;56.880;16.658;2023-06-05T02:12:06;3.53;;;2.50;;
26906;SDS011;14472;56.880;16.658;2023-06-05T02:14:32;2.83;;;2.40;;
26906;SDS011;14472;56.880;16.658;2023-06-05T02:17:01;3.93;;;2.70;;
26906;SDS011;14472;56.880;16.658;2023-06-05T02:19:31;3.83;;;2.53;;
26906;SDS011;14472;56.880;16.658;2023-06-05T02:21:57;4.70;;;2.50;;
26906;SDS011;14472;56.880;16.658;2023-06-05T02:24:23;4.33;;;2.80;;
26906;SDS011;14472;56.880;16.658;2023-06-05T02:26:50;4.63;;;2.77;;
26906;SDS011;14472;56.880;16.658;2023-06-05T02:29:17;4.17;;;2.70;;
26906;SDS011;14472;56.880;16.658;2023-06-05T02:31:42;4.00;;;2.47;;
26906;SDS011;14472;56.880;16.658;2023-06-05T02:34:09;4.37;;;3.10;;
26906;SDS011;14472;56.880;16.658;2023-06-05T02:36:34;5.97;;;2.90;;
26906;SDS011;14472;56.880;16.658;2023-06-05T02:39:01;4.93;;;2.90;;
26906;SDS011;14472;56.880;16.658;2023-06-05T02:41:28;4.73;;;2.90;;
26906;SDS011;14472;56.880;16.658;2023-06-05T02:43:54;4.07;;;2.80;;
26906;SDS011;14472;56.880;16.658;2023-06-05T02:46:23;3.67;;;2.87;;
26906;SDS011;14472;56.880;16.658;2023-06-05T02:48:50;4.17;;;2.57;;
26906;SDS011;14472;56.880;16.658;2023-06-05T02:51:16;4.07;;;2.67;;
26906;SDS011;14472;56.880;16.658;2023-06-05T02:53:42;3.80;;;2.87;;
26906;SDS011;14472;56.880;16.658;2023-06-05T02:56:08;9.10;;;3.10;;
26906;SDS011;14472;56.880;16.658;2023-06-05T02:58:34;3.27;;;2.57;;
26906;SDS011;14472;56.880;16.658;2023-06-05T03:01:00;5.00;;;3.63;;
26906;SDS011;14472;56.880;16.658;2023-06-05T03:03:32;3.97;;;2.70;;
26906;SDS011;14472;56.880;16.658;2023-06-05T03:05:58;4.93;;;3.07;;
26906;SDS011;14472;56.880;16.658;2023-06-05T03:08:32;4.20;;;2.77;;
26906;SDS011;14472;56.880;16.658;2023-06-05T03:10:59;6.40;;;3.20;;
26906;SDS011;14472;56.880;16.658;2023-06-05T03:13:26;4.50;;;2.97;;
26906;SDS011;14472;56.880;16.658;2023-06-05T03:15:52;4.10;;;2.57;;
26906;SDS011;14472;56.880;16.658;2023-06-05T03:18:22;5.60;;;2.90;;
26906;SDS011;14472;56.880;16.658;2023-06-05T03:20:52;6.57;;;2.80;;
26906;SDS011;14472;56.880;16.658;2023-06-05T03:23:27;5.00;;;3.10;;
26906;SDS011;14472;56.880;16.658;2023-06-05T03:25:54;4.00;;;2.77;;
26906;SDS011;14472;56.880;16.658;2023-06-05T03:28:21;6.60;;;3.03;;
26906;SDS011;14472;56.880;16.658;2023-06-05T03:30:47;5.17;;;3.27;;
26906;SDS011;14472;56.880;16.658;2023-06-05T03:33:14;4.30;;;3.03;;
26906;SDS011;14472;56.880;16.658;2023-06-05T03:35:43;4.97;;;3.20;;
26906;SDS011;14472;56.880;16.658;2023-06-05T03:38:12;8.77;;;3.40;;
26906;SDS011;14472;56.880;16.658;2023-06-05T03:40:38;4.17;;;3.60;;
26906;SDS011;14472;56.880;16.658;2023-06-05T03:43:05;5.20;;;3.57;;
26906;SDS011;14472;56.880;16.658;2023-06-05T03:45:31;7.53;;;3.80;;
26906;SDS011;14472;56.880;16.658;2023-06-05T03:47:58;5.90;;;3.83;;
26906;SDS011;14472;56.880;16.658;2023-06-05T03:50:25;9.57;;;4.40;;
26906;SDS011;14472;56.880;16.658;2023-06-05T03:52:53;4.13;;;3.73;;
26906;SDS011;14472;56.880;16.658;2023-06-05T03:55:27;5.87;;;3.80;;
26906;SDS011;14472;56.880;16.658;2023-06-05T03:58:12;8.97;;;4.20;;
26906;SDS011;14472;56.880;16.658;2023-06-05T04:00:42;7.37;;;4.20;;
26906;SDS011;14472;56.880;16.658;2023-06-05T04:03:09;5.60;;;4.47;;
26906;SDS011;14472;56.880;16.658;2023-06-05T04:05:36;7.53;;;4.60;;
26906;SDS011;14472;56.880;16.658;2023-06-05T04:08:03;5.67;;;4.33;;
26906;SDS011;14472;56.880;16.658;2023-06-05T04:10:29;9.57;;;4.90;;
26906;SDS011;14472;56.880;16.658;2023-06-05T04:12:55;6.77;;;4.50;;
26906;SDS011;14472;56.880;16.658;2023-06-05T04:15:24;6.73;;;4.57;;
26906;SDS011;14472;56.880;16.658;2023-06-05T04:17:51;8.73;;;4.70;;
26906;SDS011;14472;56.880;16.658;2023-06-05T04:20:17;6.30;;;4.87;;
26906;SDS011;14472;56.880;16.658;2023-06-05T04:22:43;8.30;;;4.67;;
26906;SDS011;14472;56.880;16.658;2023-06-05T04:25:13;9.00;;;5.30;;
26906;SDS011;14472;56.880;16.658;2023-06-05T04:27:39;7.07;;;5.10;;
26906;SDS011;14472;56.880;16.658;2023-06-05T04:30:07;7.13;;;5.10;;
26906;SDS011;14472;56.880;16.658;2023-06-05T04:32:34;9.43;;;5.00;;
26906;SDS011;14472;56.880;16.658;2023-06-05T04:35:03;10.60;;;5.03;;
26906;SDS011;14472;56.880;16.658;2023-06-05T04:37:30;6.63;;;4.50;;
26906;SDS011;14472;56.880;16.658;2023-06-05T04:39:56;7.20;;;4.90;;
26906;SDS011;14472;56.880;16.658;2023-06-05T04:42:24;5.57;;;4.87;;
26906;SDS011;14472;56.880;16.658;2023-06-05T04:44:59;6.33;;;5.00;;
26906;SDS011;14472;56.880;16.658;2023-06-05T04:47:27;7.93;;;4.73;;
26906;SDS011;14472;56.880;16.658;2023-06-05T04:49:53;6.53;;;5.10;;
26906;SDS011;14472;56.880;16.658;2023-06-05T04:52:20;7.23;;;4.90;;
26906;SDS011;14472;56.880;16.658;2023-06-05T04:54:46;8.43;;;5.90;;
26906;SDS011;14472;56.880;16.658;2023-06-05T04:57:12;6.97;;;5.17;;
26906;SDS011;14472;56.880;16.658;2023-06-05T04:59:38;7.60;;;5.27;;
26906;SDS011;14472;56.880;16.658;2023-06-05T05:02:05;7.23;;;5.07;;
26906;SDS011;14472;56.880;16.658;2023-06-05T05:04:30;5.97;;;4.73;;
26906;SDS011;14472;56.880;16.658;2023-06-05T05:06:57;8.97;;;5.00;;
26906;SDS011;14472;56.880;16.658;2023-06-05T05:09:31;8.00;;;4.83;;
26906;SDS011;14472;56.880;16.658;2023-06-05T05:11:57;8.77;;;5.53;;
26906;SDS011;14472;56.880;16.658;2023-06-05T05:14:24;9.10;;;5.53;;
26906;SDS011;14472;56.880;16.658;2023-06-05T05:16:53;9.77;;;6.00;;
26906;SDS011;14472;56.880;16.658;2023-06-05T05:19:20;7.10;;;5.70;;
26906;SDS011;14472;56.880;16.658;2023-06-05T05:21:47;8.90;;;5.90;;
26906;SDS011;14472;56.880;16.658;2023-06-05T05:24:13;7.00;;;5.60;;
26906;SDS011;14472;56.880;16.658;2023-06-05T05:26:39;7.97;;;6.00;;
26906;SDS011;14472;56.880;16.658;2023-06-05T05:29:05;8.77;;;6.10;;
26906;SDS011;14472;56.880;16.658;2023-06-05T05:31:31;8.33;;;5.70;;
26906;SDS011;14472;56.880;16.658;2023-06-05T05:33:57;10.90;;;6.00;;
26906;SDS011;14472;56.880;16.658;2023-06-05T05:36:24;6.00;;;5.40;;
26906;SDS011;14472;56.880;16.658;2023-06-05T05:38:51;12.23;;;5.97;;
26906;SDS011;14472;56.880;16.658;2023-06-05T05:41:17;6.77;;;5.93;;
26906;SDS011;14472;56.880;16.658;2023-06-05T05:43:43;9.23;;;5.97;;
26906;SDS011;14472;56.880;16.658;2023-06-05T05:46:08;9.37;;;6.00;;
26906;SDS011;14472;56.880;16.658;2023-06-05T05:48:35;10.07;;;6.13;;
26906;SDS011;14472;56.880;16.658;2023-06-05T05:51:01;8.10;;;5.70;;
26906;SDS011;14472;56.880;16.658;2023-06-05T05:53:27;8.43;;;5.77;;
26906;SDS011;14472;56.880;16.658;2023-06-05T05:55:52;9.87;;;6.23;;
26906;SDS011;14472;56.880;16.658;2023-06-05T05:58:19;7.30;;;5.40;;
26906;SDS011;14472;56.880;16.658;2023-06-05T06:00:45;6.37;;;5.50;;
26906;SDS011;14472;56.880;16.658;2023-06-05T06:03:11;7.13;;;5.40;;
26906;SDS011;14472;56.880;16.658;2023-06-05T06:05:38;7.77;;;5.03;;
26906;SDS011;14472;56.880;16.658;2023-06-05T06:08:04;9.67;;;5.70;;
26906;SDS011;14472;56.880;16.658;2023-06-05T06:10:31;8.83;;;5.63;;
26906;SDS011;14472;56.880;16.658;2023-06-05T06:12:57;9.50;;;5.60;;
26906;SDS011;14472;56.880;16.658;2023-06-05T06:15:23;6.87;;;5.03;;
26906;SDS011;14472;56.880;16.658;2023-06-05T06:17:49;9.03;;;5.53;;
26906;SDS011;14472;56.880;16.658;2023-06-05T06:20:15;6.33;;;4.90;;
26906;SDS011;14472;56.880;16.658;2023-06-05T06:22:44;8.70;;;4.43;;
26906;SDS011;14472;56.880;16.658;2023-06-05T06:25:10;10.20;;;4.50;;
26906;SDS011;14472;56.880;16.658;2023-06-05T06:27:37;14.50;;;4.87;;
26906;SDS011;14472;56.880;16.658;2023-06-05T06:30:03;7.00;;;4.60;;
26906;SDS011;14472;56.880;16.658;2023-06-05T06:32:30;6.63;;;4.63;;
26906;SDS011;14472;56.880;16.658;2023-06-05T06:34:56;7.20;;;4.40;;
26906;SDS011;14472;56.880;16.658;2023-06-05T06:37:22;6.57;;;4.40;;
26906;SDS011;14472;56.880;16.658;2023-06-05T06:39:48;6.23;;;4.30;;
26906;SDS011;14472;56.880;16.658;2023-06-05T06:42:14;8.93;;;4.63;;
26906;SDS011;14472;56.880;16.658;2023-06-05T06:44:41;7.85;;;4.53;;
26906;SDS011;14472;56.880;16.658;2023-06-05T06:47:07;6.97;;;4.17;;
26906;SDS011;14472;56.880;16.658;2023-06-05T06:49:34;7.38;;;4.65;;
26906;SDS011;14472;56.880;16.658;2023-06-05T06:52:00;6.90;;;4.07;;
26906;SDS011;14472;56.880;16.658;2023-06-05T06:54:27;8.27;;;4.10;;
26906;SDS011;14472;56.880;16.658;2023-06-05T06:56:56;10.95;;;4.90;;
26906;SDS011;14472;56.880;16.658;2023-06-05T06:59:22;8.32;;;4.57;;
26906;SDS011;14472;56.880;16.658;2023-06-05T07:02:07;9.00;;;4.68;;
26906;SDS011;14472;56.880;16.658;2023-06-05T07:04:38;9.10;;;4.43;;
26906;SDS011;14472;56.880;16.658;2023-06-05T07:07:07;10.68;;;4.50;;
26906;SDS011;14472;56.880;16.658;2023-06-05T07:09:33;11.85;;;3.95;;
26906;SDS011;14472;56.880;16.658;2023-06-05T07:11:59;7.78;;;3.63;;
26906;SDS011;14472;56.880;16.658;2023-06-05T07:14:29;6.28;;;3.55;;
26906;SDS011;14472;56.880;16.658;2023-06-05T07:16:57;5.97;;;3.13;;
26906;SDS011;14472;56.880;16.658;2023-06-05T07:19:25;6.47;;;3.45;;
26906;SDS011;14472;56.880;16.658;2023-06-05T07:21:55;5.82;;;3.03;;
26906;SDS011;14472;56.880;16.658;2023-06-05T07:24:22;4.53;;;2.78;;
26906;SDS011;14472;56.880;16.658;2023-06-05T07:26:53;5.00;;;2.70;;
26906;SDS011;14472;56.880;16.658;2023-06-05T07:29:20;7.32;;;2.97;;
26906;SDS011;14472;56.880;16.658;2023-06-05T07:31:48;9.13;;;3.13;;
26906;SDS011;14472;56.880;16.658;2023-06-05T07:34:19;5.35;;;2.75;;
26906;SDS011;14472;56.880;16.658;2023-06-05T07:36:46;6.70;;;2.95;;
26906;SDS011;14472;56.880;16.658;2023-06-05T07:39:13;8.25;;;2.97;;
26906;SDS011;14472;56.880;16.658;2023-06-05T07:41:40;6.15;;;3.00;;
26906;SDS011;14472;56.880;16.658;2023-06-05T07:44:09;6.30;;;2.78;;
26906;SDS011;14472;56.880;16.658;2023-06-05T07:46:36;6.15;;;2.50;;
26906;SDS011;14472;56.880;16.658;2023-06-05T07:49:04;4.63;;;2.42;;
26906;SDS011;14472;56.880;16.658;2023-06-05T07:51:30;8.20;;;2.83;;
26906;SDS011;14472;56.880;16.658;2023-06-05T07:54:03;4.88;;;2.65;;
26906;SDS011;14472;56.880;16.658;2023-06-05T07:56:33;5.50;;;2.88;;
26906;SDS011;14472;56.880;16.658;2023-06-05T07:59:00;7.72;;;2.90;;
26906;SDS011;14472;56.880;16.658;2023-06-05T08:01:28;6.30;;;3.00;;
26906;SDS011;14472;56.880;16.658;2023-06-05T08:03:54;5.20;;;2.72;;
26906;SDS011;14472;56.880;16.658;2023-06-05T08:06:20;6.82;;;3.25;;
26906;SDS011;14472;56.880;16.658;2023-06-05T08:08:46;6.93;;;3.33;;
26906;SDS011;14472;56.880;16.658;2023-06-05T08:11:12;8.27;;;3.25;;
26906;SDS011;14472;56.880;16.658;2023-06-05T08:13:38;6.72;;;3.13;;
26906;SDS011;14472;56.880;16.658;2023-06-05T08:16:04;9.48;;;3.90;;
26906;SDS011;14472;56.880;16.658;2023-06-05T08:18:30;8.05;;;3.40;;
26906;SDS011;14472;56.880;16.658;2023-06-05T08:20:56;7.35;;;3.20;;
26906;SDS011;14472;56.880;16.658;2023-06-05T08:23:22;5.20;;;3.03;;
26906;SDS011;14472;56.880;16.658;2023-06-05T08:25:48;6.03;;;3.03;;
26906;SDS011;14472;56.880;16.658;2023-06-05T08:28:14;5.15;;;2.78;;
26906;SDS011;14472;56.880;16.658;2023-06-05T08:30:41;5.15;;;2.80;;
26906;SDS011;14472;56.880;16.658;2023-06-05T08:33:07;6.75;;;2.80;;
26906;SDS011;14472;56.880;16.658;2023-06-05T08:35:33;6.93;;;3.25;;
26906;SDS011;14472;56.880;16.658;2023-06-05T08:37:59;5.78;;;2.50;;
26906;SDS011;14472;56.880;16.658;2023-06-05T08:40:27;5.82;;;2.60;;
26906;SDS011;14472;56.880;16.658;2023-06-05T08:42:54;6.22;;;2.53;;
26906;SDS011;14472;56.880;16.658;2023-06-05T08:45:20;4.07;;;2.75;;
26906;SDS011;14472;56.880;16.658;2023-06-05T08:47:48;6.57;;;2.78;;
26906;SDS011;14472;56.880;16.658;2023-06-05T08:50:15;4.72;;;2.67;;
26906;SDS011;14472;56.880;16.658;2023-06-05T08:52:42;7.00;;;2.80;;
26906;SDS011;14472;56.880;16.658;2023-06-05T08:55:10;6.50;;;2.60;;
26906;SDS011;14472;56.880;16.658;2023-06-05T08:57:40;7.50;;;2.75;;
26906;SDS011;14472;56.880;16.658;2023-06-05T09:00:07;6.13;;;2.90;;
26906;SDS011;14472;56.880;16.658;2023-06-05T09:02:37;6.43;;;2.60;;
26906;SDS011;14472;56.880;16.658;2023-06-05T09:05:04;7.07;;;2.53;;
26906;SDS011;14472;56.880;16.658;2023-06-05T09:07:32;4.78;;;2.38;;
26906;SDS011;14472;56.880;16.658;2023-06-05T09:09:58;6.38;;;2.60;;
26906;SDS011;14472;56.880;16.658;2023-06-05T09:12:24;5.78;;;2.75;;
26906;SDS011;14472;56.880;16.658;2023-06-05T09:14:51;6.97;;;2.50;;
26906;SDS011;14472;56.880;16.658;2023-06-05T09:17:17;7.38;;;2.53;;
26906;SDS011;14472;56.880;16.658;2023-06-05T09:19:43;4.50;;;2.45;;
26906;SDS011;14472;56.880;16.658;2023-06-05T09:22:11;5.20;;;2.88;;
26906;SDS011;14472;56.880;16.658;2023-06-05T09:24:39;5.18;;;2.30;;
26906;SDS011;14472;56.880;16.658;2023-06-05T09:27:12;6.70;;;2.50;;
26906;SDS011;14472;56.880;16.658;2023-06-05T09:29:42;6.82;;;2.65;;
26906;SDS011;14472;56.880;16.658;2023-06-05T09:32:15;6.90;;;2.78;;
26906;SDS011;14472;56.880;16.658;2023-06-05T09:34:47;7.55;;;3.00;;
26906;SDS011;14472;56.880;16.658;2023-06-05T09:37:32;5.30;;;2.50;;
26906;SDS011;14472;56.880;16.658;2023-06-05T09:40:00;5.85;;;2.88;;
26906;SDS011;14472;56.880;16.658;2023-06-05T09:42:32;7.80;;;2.75;;
26906;SDS011;14472;56.880;16.658;2023-06-05T09:44:59;5.88;;;2.90;;
26906;SDS011;14472;56.880;16.658;2023-06-05T09:47:26;7.90;;;2.70;;
26906;SDS011;14472;56.880;16.658;2023-06-05T09:49:52;5.45;;;2.80;;
26906;SDS011;14472;56.880;16.658;2023-06-05T09:52:17;7.18;;;2.90;;
26906;SDS011;14472;56.880;16.658;2023-06-05T09:54:44;5.20;;;2.40;;
26906;SDS011;14472;56.880;16.658;2023-06-05T09:57:11;4.95;;;2.53;;
26906;SDS011;14472;56.880;16.658;2023-06-05T10:00:01;6.60;;;2.40;;
26906;SDS011;14472;56.880;16.658;2023-06-05T10:02:33;7.00;;;2.70;;
26906;SDS011;14472;56.880;16.658;2023-06-05T10:05:01;4.40;;;2.70;;
26906;SDS011;14472;56.880;16.658;2023-06-05T10:07:32;6.32;;;2.90;;
26906;SDS011;14472;56.880;16.658;2023-06-05T10:10:00;8.02;;;3.10;;
26906;SDS011;14472;56.880;16.658;2023-06-05T10:12:27;5.90;;;3.47;;
26906;SDS011;14472;56.880;16.658;2023-06-05T10:14:55;6.15;;;3.00;;
26906;SDS011;14472;56.880;16.658;2023-06-05T10:17:23;11.90;;;3.25;;
26906;SDS011;14472;56.880;16.658;2023-06-05T10:19:49;7.13;;;3.15;;
26906;SDS011;14472;56.880;16.658;2023-06-05T10:22:16;9.60;;;2.70;;
26906;SDS011;14472;56.880;16.658;2023-06-05T10:24:46;6.95;;;3.05;;
26906;SDS011;14472;56.880;16.658;2023-06-05T10:27:23;4.43;;;2.40;;
26906;SDS011;14472;56.880;16.658;2023-06-05T10:30:28;7.00;;;3.00;;
26906;SDS011;14472;56.880;16.658;2023-06-05T10:33:39;7.13;;;2.90;;
26906;SDS011;14472;56.880;16.658;2023-06-05T10:38:41;6.60;;;3.03;;
26906;SDS011;14472;56.880;16.658;2023-06-05T10:41:09;5.97;;;2.80;;
26906;SDS011;14472;56.880;16.658;2023-06-05T10:43:36;6.13;;;2.63;;
26906;SDS011;14472;56.880;16.658;2023-06-05T10:51:51;10.68;;;2.60;;
26906;SDS011;14472;56.880;16.658;2023-06-05T10:59:16;6.47;;;3.13;;
26906;SDS011;14472;56.880;16.658;2023-06-05T11:01:45;6.28;;;2.90;;
26906;SDS011;14472;56.880;16.658;2023-06-05T11:15:07;5.82;;;2.72;;
26906;SDS011;14472;56.880;16.658;2023-06-05T11:17:40;6.97;;;2.97;;
26906;SDS011;14472;56.880;16.658;2023-06-05T11:27:50;5.65;;;2.38;;
26906;SDS011;14472;56.880;16.658;2023-06-05T11:30:19;7.65;;;2.58;;
26906;SDS011;14472;56.880;16.658;2023-06-05T11:32:46;7.13;;;2.45;;
26906;SDS011;14472;56.880;16.658;2023-06-05T11:35:12;3.92;;;2.33;;
26906;SDS011;14472;56.880;16.658;2023-06-05T11:37:38;8.32;;;3.00;;
26906;SDS011;14472;56.880;16.658;2023-06-05T11:40:05;3.97;;;2.28;;
26906;SDS011;14472;56.880;16.658;2023-06-05T11:42:35;6.70;;;3.08;;
26906;SDS011;14472;56.880;16.658;2023-06-05T11:45:04;6.20;;;2.28;;
26906;SDS011;14472;56.880;16.658;2023-06-05T11:47:35;6.28;;;2.65;;
26906;SDS011;14472;56.880;16.658;2023-06-05T11:50:07;3.40;;;2.22;;
26906;SDS011;14472;56.880;16.658;2023-06-05T11:52:37;5.00;;;2.72;;
26906;SDS011;14472;56.880;16.658;2023-06-05T11:55:16;5.25;;;2.45;;
26906;SDS011;14472;56.880;16.658;2023-06-05T11:57:46;6.10;;;2.88;;
26906;SDS011;14472;56.880;16.658;2023-06-05T12:00:14;5.60;;;2.88;;
26906;SDS011;14472;56.880;16.658;2023-06-05T12:02:44;6.05;;;2.70;;
26906;SDS011;14472;56.880;16.658;2023-06-05T12:05:11;11.35;;;3.17;;
26906;SDS011;14472;56.880;16.658;2023-06-05T12:07:37;6.72;;;3.28;;
26906;SDS011;14472;56.880;16.658;2023-06-05T12:10:04;7.43;;;3.00;;
26906;SDS011;14472;56.880;16.658;2023-06-05T12:12:32;4.65;;;3.00;;
26906;SDS011;14472;56.880;16.658;2023-06-05T12:15:20;4.28;;;2.97;;
26906;SDS011;14472;56.880;16.658;2023-06-05T12:17:55;6.55;;;3.08;;
26906;SDS011;14472;56.880;16.658;2023-06-05T12:20:21;6.25;;;2.70;;
26906;SDS011;14472;56.880;16.658;2023-06-05T12:22:48;6.97;;;2.78;;
26906;SDS011;14472;56.880;16.658;2023-06-05T12:25:14;8.60;;;2.97;;
26906;SDS011;14472;56.880;16.658;2023-06-05T12:27:41;6.18;;;2.70;;
26906;SDS011;14472;56.880;16.658;2023-06-05T12:30:07;6.32;;;3.10;;
26906;SDS011;14472;56.880;16.658;2023-06-05T12:32:34;6.32;;;3.22;;
26906;SDS011;14472;56.880;16.658;2023-06-05T12:35:00;5.60;;;3.00;;
26906;SDS011;14472;56.880;16.658;2023-06-05T12:37:29;5.68;;;2.70;;
26906;SDS011;14472;56.880;16.658;2023-06-05T12:40:04;6.35;;;2.58;;
26906;SDS011;14472;56.880;16.658;2023-06-05T12:42:35;7.88;;;2.80;;
26906;SDS011;14472;56.880;16.658;2023-06-05T12:45:03;7.78;;;2.97;;
26906;SDS011;14472;56.880;16.658;2023-06-05T12:47:30;3.40;;;2.38;;
26906;SDS011;14472;56.880;16.658;2023-06-05T12:49:55;5.82;;;2.75;;
26906;SDS011;14472;56.880;16.658;2023-06-05T12:52:24;6.45;;;2.72;;
26906;SDS011;14472;56.880;16.658;2023-06-05T12:54:53;7.07;;;2.70;;
26906;SDS011;14472;56.880;16.658;2023-06-05T12:57:19;6.85;;;2.90;;
26906;SDS011;14472;56.880;16.658;2023-06-05T12:59:49;5.72;;;2.92;;
26906;SDS011;14472;56.880;16.658;2023-06-05T13:02:17;4.65;;;2.65;;
26906;SDS011;14472;56.880;16.658;2023-06-05T13:04:42;7.43;;;3.00;;
26906;SDS011;14472;56.880;16.658;2023-06-05T13:07:08;4.70;;;2.50;;
26906;SDS011;14472;56.880;16.658;2023-06-05T13:09:36;8.00;;;2.80;;
26906;SDS011;14472;56.880;16.658;2023-06-05T13:12:05;5.53;;;2.65;;
26906;SDS011;14472;56.880;16.658;2023-06-05T13:14:31;7.15;;;2.83;;
26906;SDS011;14472;56.880;16.658;2023-06-05T13:16:57;4.85;;;2.45;;
26906;SDS011;14472;56.880;16.658;2023-06-05T13:19:23;5.53;;;2.40;;
26906;SDS011;14472;56.880;16.658;2023-06-05T13:21:50;9.70;;;2.65;;
26906;SDS011;14472;56.880;16.658;2023-06-05T13:24:16;6.03;;;2.60;;
26906;SDS011;14472;56.880;16.658;2023-06-05T13:26:42;5.00;;;2.35;;
26906;SDS011;14472;56.880;16.658;2023-06-05T13:29:09;4.53;;;2.67;;
26906;SDS011;14472;56.880;16.658;2023-06-05T13:31:35;6.85;;;2.78;;
26906;SDS011;14472;56.880;16.658;2023-06-05T13:34:02;3.63;;;1.98;;
26906;SDS011;14472;56.880;16.658;2023-06-05T13:36:27;4.53;;;2.22;;
26906;SDS011;14472;56.880;16.658;2023-06-05T13:38:53;5.60;;;2.30;;
26906;SDS011;14472;56.880;16.658;2023-06-05T13:41:19;4.07;;;2.00;;
26906;SDS011;14472;56.880;16.658;2023-06-05T13:43:46;5.53;;;2.13;;
26906;SDS011;14472;56.880;16.658;2023-06-05T13:46:12;6.38;;;2.22;;
26906;SDS011;14472;56.880;16.658;2023-06-05T13:48:38;2.80;;;2.10;;
26906;SDS011;14472;56.880;16.658;2023-06-05T13:51:03;5.07;;;2.10;;
26906;SDS011;14472;56.880;16.658;2023-06-05T13:53:30;5.13;;;1.98;;
26906;SDS011;14472;56.880;16.658;2023-06-05T13:56:02;4.10;;;2.05;;
26906;SDS011;14472;56.880;16.658;2023-06-05T13:58:29;6.22;;;2.30;;
26906;SDS011;14472;56.880;16.658;2023-06-05T14:00:55;5.13;;;2.30;;
26906;SDS011;14472;56.880;16.658;2023-06-05T14:03:21;6.45;;;2.15;;
26906;SDS011;14472;56.880;16.658;2023-06-05T14:05:47;6.38;;;2.00;;
26906;SDS011;14472;56.880;16.658;2023-06-05T14:08:13;4.18;;;2.53;;
26906;SDS011;14472;56.880;16.658;2023-06-05T14:10:38;4.45;;;2.47;;
26906;SDS011;14472;56.880;16.658;2023-06-05T14:13:04;6.30;;;2.30;;
26906;SDS011;14472;56.880;16.658;2023-06-05T14:15:31;6.45;;;2.10;;
26906;SDS011;14472;56.880;16.658;2023-06-05T14:18:01;5.35;;;2.60;;
26906;SDS011;14472;56.880;16.658;2023-06-05T14:20:29;4.68;;;2.17;;
26906;SDS011;14472;56.880;16.658;2023-06-05T14:22:58;4.40;;;2.22;;
26906;SDS011;14472;56.880;16.658;2023-06-05T14:25:27;4.93;;;2.22;;
26906;SDS011;14472;56.880;16.658;2023-06-05T14:27:54;7.10;;;2.75;;
26906;SDS011;14472;56.880;16.658;2023-06-05T14:30:23;6.40;;;2.35;;
26906;SDS011;14472;56.880;16.658;2023-06-05T14:32:52;3.60;;;2.15;;
26906;SDS011;14472;56.880;16.658;2023-06-05T14:35:17;5.20;;;2.40;;
26906;SDS011;14472;56.880;16.658;2023-06-05T14:37:44;6.63;;;2.28;;
26906;SDS011;14472;56.880;16.658;2023-06-05T14:40:13;5.63;;;2.00;;
26906;SDS011;14472;56.880;16.658;2023-06-05T14:42:39;6.70;;;2.08;;
26906;SDS011;14472;56.880;16.658;2023-06-05T14:45:05;6.55;;;2.40;;
26906;SDS011;14472;56.880;16.658;2023-06-05T14:47:31;3.05;;;1.83;;
26906;SDS011;14472;56.880;16.658;2023-06-05T14:49:57;4.28;;;1.90;;
26906;SDS011;14472;56.880;16.658;2023-06-05T14:52:23;4.97;;;2.40;;
26906;SDS011;14472;56.880;16.658;2023-06-05T14:54:49;4.88;;;2.40;;
26906;SDS011;14472;56.880;16.658;2023-06-05T14:57:14;4.30;;;2.08;;
26906;SDS011;14472;56.880;16.658;2023-06-05T14:59:40;3.75;;;1.95;;
26906;SDS011;14472;56.880;16.658;2023-06-05T15:02:06;5.18;;;1.88;;
26906;SDS011;14472;56.880;16.658;2023-06-05T15:04:32;4.25;;;2.05;;
26906;SDS011;14472;56.880;16.658;2023-06-05T15:06:58;5.28;;;2.00;;
26906;SDS011;14472;56.880;16.658;2023-06-05T15:09:25;3.80;;;2.15;;
26906;SDS011;14472;56.880;16.658;2023-06-05T15:11:51;4.72;;;2.05;;